sensor_id;sensor_type;location;lat;lon;timestamp;pressure;altitude;pressure_sealevel;temperature;humidity
7297;BME280;40758;54.038;11.684;2024-02-15T00:00:41;101396.19;;;9.52;100.00
7297;BME280;40758;54.038;11.684;2024-02-15T00:03:12;101387.00;;;9.53;100.00
7297;BME280;40758;54.038;11.684;2024-02-15T00:05:43;101397.84;;;9.53;100.00
7297;BME280;40758;54.038;11.684;2024-02-15T00:08:10;101394.50;;;9.51;100.00
7297;BME280;40758;54.038;11.684;2024-02-15T00:10:37;101398.44;;;9.48;100.00
7297;BME280;40758;54.038;11.684;2024-02-15T00:13:04;101394.88;;;9.48;100.00
7297;BME280;40758;54.038;11.684;2024-02-15T00:15:32;101389.47;;;9.48;100.00
7297;BME280;40758;54.038;11.684;2024-02-15T00:18:01;101396.56;;;9.49;100.00
7297;BME280;40758;54.038;11.684;2024-02-15T00:20:29;101391.13;;;9.49;100.00
7297;BME280;40758;54.038;11.684;2024-02-15T00:22:56;101391.97;;;9.49;100.00
7297;BME280;40758;54.038;11.684;2024-02-15T00:25:23;101396.56;;;9.49;100.00
7297;BME280;40758;54.038;11.684;2024-02-15T00:27:51;101394.69;;;9.49;100.00
7297;BME280;40758;54.038;11.684;2024-02-15T00:30:18;101395.53;;;9.50;100.00
7297;BME280;40758;54.038;11.684;2024-02-15T00:32:45;101389.25;;;9.49;100.00
7297;BME280;40758;54.038;11.684;2024-02-15T00:35:13;101394.69;;;9.49;100.00
7297;BME280;40758;54.038;11.684;2024-02-15T00:37:40;101401.78;;;9.50;100.00
7297;BME280;40758;54.038;11.684;2024-02-15T00:40:08;101392.63;;;9.51;100.00
7297;BME280;40758;54.038;11.684;2024-02-15T00:42:35;101404.47;;;9.50;100.00
7297;BME280;40758;54.038;11.684;2024-02-15T00:45:03;101397.22;;;9.51;100.00
7297;BME280;40758;54.038;11.684;2024-02-15T00:47:31;101394.50;;;9.51;100.00
7297;BME280;40758;54.038;11.684;2024-02-15T00:49:59;101393.63;;;9.50;100.00
7297;BME280;40758;54.038;11.684;2024-02-15T00:52:26;101389.91;;;9.51;100.00
7297;BME280;40758;54.038;11.684;2024-02-15T00:54:53;101391.59;;;9.52;100.00
7297;BME280;40758;54.038;11.684;2024-02-15T00:57:19;101399.50;;;9.54;100.00
7297;BME280;40758;54.038;11.684;2024-02-15T00:59:46;101399.50;;;9.54;100.00
7297;BME280;40758;54.038;11.684;2024-02-15T01:02:14;101391.38;;;9.54;100.00
7297;BME280;40758;54.038;11.684;2024-02-15T01:04:41;101394.94;;;9.54;100.00
7297;BME280;40758;54.038;11.684;2024-02-15T01:07:09;101397.00;;;9.52;100.00
7297;BME280;40758;54.038;11.684;2024-02-15T01:09:36;101390.75;;;9.52;100.00
7297;BME280;40758;54.038;11.684;2024-02-15T01:12:03;101395.97;;;9.53;100.00
7297;BME280;40758;54.038;11.684;2024-02-15T01:14:33;101393.25;;;9.53;100.00
7297;BME280;40758;54.038;11.684;2024-02-15T01:17:01;101394.09;;;9.54;100.00
7297;BME280;40758;54.038;11.684;2024-02-15T01:19:27;101397.63;;;9.54;100.00
7297;BME280;40758;54.038;11.684;2024-02-15T01:21:54;101389.72;;;9.53;100.00
7297;BME280;40758;54.038;11.684;2024-02-15T01:24:21;101393.06;;;9.55;100.00
7297;BME280;40758;54.038;11.684;2024-02-15T01:26:48;101395.75;;;9.55;100.00
7297;BME280;40758;54.038;11.684;2024-02-15T01:29:16;101390.34;;;9.55;100.00
7297;BME280;40758;54.038;11.684;2024-02-15T01:31:42;101385.97;;;9.54;100.00
7297;BME280;40758;54.038;11.684;2024-02-15T01:34:09;101389.91;;;9.51;100.00
7297;BME280;40758;54.038;11.684;2024-02-15T01:36:38;101379.91;;;9.52;100.00
7297;BME280;40758;54.038;11.684;2024-02-15T01:39:05;101384.28;;;9.53;100.00
7297;BME280;40758;54.038;11.684;2024-02-15T01:41:31;101379.50;;;9.55;100.00
7297;BME280;40758;54.038;11.684;2024-02-15T01:44:02;101366.53;;;9.50;100.00
7297;BME280;40758;54.038;11.684;2024-02-15T01:46:29;101374.06;;;9.55;100.00
7297;BME280;40758;54.038;11.684;2024-02-15T01:48:59;101373.03;;;9.56;100.00
7297;BME280;40758;54.038;11.684;2024-02-15T01:51:27;101370.97;;;9.58;100.00
7297;BME280;40758;54.038;11.684;2024-02-15T01:53:54;101372.84;;;9.57;100.00
7297;BME280;40758;54.038;11.684;2024-02-15T01:56:22;101362.00;;;9.57;100.00
7297;BME280;40758;54.038;11.684;2024-02-15T01:58:50;101371.59;;;9.60;100.00
7297;BME280;40758;54.038;11.684;2024-02-15T02:01:16;101366.38;;;9.58;100.00
7297;BME280;40758;54.038;11.684;2024-02-15T02:03:43;101368.91;;;9.60;100.00
7297;BME280;40758;54.038;11.684;2024-02-15T02:06:11;101371.81;;;9.58;100.00
7297;BME280;40758;54.038;11.684;2024-02-15T02:08:38;101361.81;;;9.59;100.00
7297;BME280;40758;54.038;11.684;2024-02-15T02:11:05;101368.28;;;9.58;100.00
7297;BME280;40758;54.038;11.684;2024-02-15T02:13:32;101367.22;;;9.59;100.00
7297;BME280;40758;54.038;11.684;2024-02-15T02:15:59;101363.47;;;9.60;100.00
7297;BME280;40758;54.038;11.684;2024-02-15T02:18:26;101367.00;;;9.60;100.00
7297;BME280;40758;54.038;11.684;2024-02-15T02:20:53;101366.81;;;9.62;100.00
7297;BME280;40758;54.038;11.684;2024-02-15T02:23:26;101366.63;;;9.64;100.00
7297;BME280;40758;54.038;11.684;2024-02-15T02:25:54;101361.22;;;9.64;100.00
7297;BME280;40758;54.038;11.684;2024-02-15T02:28:22;101361.00;;;9.65;100.00
7297;BME280;40758;54.038;11.684;2024-02-15T02:30:48;101359.13;;;9.66;100.00
7297;BME280;40758;54.038;11.684;2024-02-15T02:33:15;101365.38;;;9.66;100.00
7297;BME280;40758;54.038;11.684;2024-02-15T02:35:47;101363.72;;;9.65;100.00
7297;BME280;40758;54.038;11.684;2024-02-15T02:38:15;101361.84;;;9.66;100.00
7297;BME280;40758;54.038;11.684;2024-02-15T02:40:42;101363.72;;;9.65;100.00
7297;BME280;40758;54.038;11.684;2024-02-15T02:43:09;101376.22;;;9.66;100.00
7297;BME280;40758;54.038;11.684;2024-02-15T02:45:36;101367.47;;;9.64;100.00
7297;BME280;40758;54.038;11.684;2024-02-15T02:48:04;101369.34;;;9.64;100.00
7297;BME280;40758;54.038;11.684;2024-02-15T02:50:31;101363.47;;;9.60;100.00
7297;BME280;40758;54.038;11.684;2024-02-15T02:52:58;101365.78;;;9.63;100.00
7297;BME280;40758;54.038;11.684;2024-02-15T02:55:26;101366.81;;;9.62;100.00
7297;BME280;40758;54.038;11.684;2024-02-15T02:57:54;101366.63;;;9.64;100.00
7297;BME280;40758;54.038;11.684;2024-02-15T03:00:22;101371.00;;;9.65;100.00
7297;BME280;40758;54.038;11.684;2024-02-15T03:02:49;101358.69;;;9.62;100.00
7297;BME280;40758;54.038;11.684;2024-02-15T03:05:16;101369.53;;;9.62;100.00
7297;BME280;40758;54.038;11.684;2024-02-15T03:07:44;101367.84;;;9.61;100.00
7297;BME280;40758;54.038;11.684;2024-02-15T03:10:11;101374.09;;;9.62;100.00
7297;BME280;40758;54.038;11.684;2024-02-15T03:12:44;101367.00;;;9.60;100.00
7297;BME280;40758;54.038;11.684;2024-02-15T03:15:16;101374.31;;;9.60;100.00
7297;BME280;40758;54.038;11.684;2024-02-15T03:17:46;101372.66;;;9.59;100.00
7297;BME280;40758;54.038;11.684;2024-02-15T03:20:13;101369.94;;;9.59;100.00
7297;BME280;40758;54.038;11.684;2024-02-15T03:22:53;101377.44;;;9.57;100.00
7297;BME280;40758;54.038;11.684;2024-02-15T03:25:21;101373.69;;;9.58;100.00
7297;BME280;40758;54.038;11.684;2024-02-15T03:27:55;101375.34;;;9.59;100.00
7297;BME280;40758;54.038;11.684;2024-02-15T03:30:24;101372.03;;;9.57;100.00
7297;BME280;40758;54.038;11.684;2024-02-15T03:32:53;101374.94;;;9.62;100.00
7297;BME280;40758;54.038;11.684;2024-02-15T03:35:23;101367.47;;;9.64;100.00
7297;BME280;40758;54.038;11.684;2024-02-15T03:37:51;101372.06;;;9.64;100.00
7297;BME280;40758;54.038;11.684;2024-02-15T03:40:19;101377.28;;;9.65;100.00
7297;BME280;40758;54.038;11.684;2024-02-15T03:42:47;101379.78;;;9.67;100.00
7297;BME280;40758;54.038;11.684;2024-02-15T03:45:14;101374.81;;;9.70;100.00
7297;BME280;40758;54.038;11.684;2024-02-15T03:47:41;101372.31;;;9.75;100.00
7297;BME280;40758;54.038;11.684;2024-02-15T03:50:08;101376.28;;;9.79;100.00
7297;BME280;40758;54.038;11.684;2024-02-15T03:52:38;101371.72;;;9.80;100.00
7297;BME280;40758;54.038;11.684;2024-02-15T03:55:05;101378.63;;;9.82;100.00
7297;BME280;40758;54.038;11.684;2024-02-15T03:57:34;101374.22;;;9.81;100.00
7297;BME280;40758;54.038;11.684;2024-02-15T04:00:01;101372.59;;;9.87;100.00
7297;BME280;40758;54.038;11.684;2024-02-15T04:02:28;101376.34;;;9.86;100.00
7297;BME280;40758;54.038;11.684;2024-02-15T04:04:56;101376.75;;;9.83;100.00
7297;BME280;40758;54.038;11.684;2024-02-15T04:07:24;101372.97;;;9.84;100.00
7297;BME280;40758;54.038;11.684;2024-02-15T04:09:53;101388.41;;;9.83;100.00
7297;BME280;40758;54.038;11.684;2024-02-15T04:12:20;101389.03;;;9.85;100.00
7297;BME280;40758;54.038;11.684;2024-02-15T04:14:48;101385.94;;;9.89;100.00
7297;BME280;40758;54.038;11.684;2024-02-15T04:17:15;101382.03;;;9.98;100.00
7297;BME280;40758;54.038;11.684;2024-02-15T04:19:45;101391.44;;;10.02;100.00
7297;BME280;40758;54.038;11.684;2024-02-15T04:22:20;101388.72;;;10.02;100.00
7297;BME280;40758;54.038;11.684;2024-02-15T04:24:47;101389.38;;;10.04;100.00
7297;BME280;40758;54.038;11.684;2024-02-15T04:27:17;101392.25;;;10.02;100.00
7297;BME280;40758;54.038;11.684;2024-02-15T04:29:47;101389.56;;;10.02;100.00
7297;BME280;40758;54.038;11.684;2024-02-15T04:32:14;101402.69;;;9.99;100.00
7297;BME280;40758;54.038;11.684;2024-02-15T04:34:40;101403.09;;;9.96;100.00
7297;BME280;40758;54.038;11.684;2024-02-15T04:37:07;101403.09;;;9.96;100.00
7297;BME280;40758;54.038;11.684;2024-02-15T04:39:35;101400.13;;;9.91;100.00
7297;BME280;40758;54.038;11.684;2024-02-15T04:42:06;101408.09;;;9.92;100.00
7297;BME280;40758;54.038;11.684;2024-02-15T04:44:39;101397.44;;;9.91;100.00
7297;BME280;40758;54.038;11.684;2024-02-15T04:47:06;101403.75;;;9.98;100.00
7297;BME280;40758;54.038;11.684;2024-02-15T04:49:32;101400.63;;;10.01;100.00
7297;BME280;40758;54.038;11.684;2024-02-15T04:51:59;101396.22;;;10.00;100.00
7297;BME280;40758;54.038;11.684;2024-02-15T04:54:30;101402.50;;;10.00;100.00
7297;BME280;40758;54.038;11.684;2024-02-15T04:56:57;101410.41;;;9.95;100.00
7297;BME280;40758;54.038;11.684;2024-02-15T04:59:24;101404.59;;;9.98;100.00
7297;BME280;40758;54.038;11.684;2024-02-15T05:01:53;101397.03;;;9.94;100.00
7297;BME280;40758;54.038;11.684;2024-02-15T05:04:19;101399.34;;;9.97;100.00
7297;BME280;40758;54.038;11.684;2024-02-15T05:06:46;101405.19;;;9.94;100.00
7297;BME280;40758;54.038;11.684;2024-02-15T05:09:13;101393.03;;;9.90;100.00
7297;BME280;40758;54.038;11.684;2024-02-15T05:11:40;101397.63;;;9.89;100.00
7297;BME280;40758;54.038;11.684;2024-02-15T05:14:08;101392.41;;;9.88;100.00
7297;BME280;40758;54.038;11.684;2024-02-15T05:16:37;101395.97;;;9.88;100.00
7297;BME280;40758;54.038;11.684;2024-02-15T05:19:09;101398.88;;;9.86;100.00
7297;BME280;40758;54.038;11.684;2024-02-15T05:21:39;101399.50;;;9.89;100.00
7297;BME280;40758;54.038;11.684;2024-02-15T05:24:08;101400.34;;;9.89;100.00
7297;BME280;40758;54.038;11.684;2024-02-15T05:26:38;101397.00;;;9.87;100.00
7297;BME280;40758;54.038;11.684;2024-02-15T05:29:05;101403.28;;;9.88;100.00
7297;BME280;40758;54.038;11.684;2024-02-15T05:31:34;101402.22;;;9.89;100.00
7297;BME280;40758;54.038;11.684;2024-02-15T05:34:02;101404.94;;;9.89;100.00
7297;BME280;40758;54.038;11.684;2024-02-15T05:36:29;101401.41;;;9.95;100.00
7297;BME280;40758;54.038;11.684;2024-02-15T05:38:56;101404.38;;;10.00;100.00
7297;BME280;40758;54.038;11.684;2024-02-15T05:41:25;101410.19;;;9.97;100.00
7297;BME280;40758;54.038;11.684;2024-02-15T05:43:52;101400.63;;;10.01;100.00
7297;BME280;40758;54.038;11.684;2024-02-15T05:46:20;101397.91;;;10.01;100.00
7297;BME280;40758;54.038;11.684;2024-02-15T05:48:49;101406.25;;;9.99;100.00
7297;BME280;40758;54.038;11.684;2024-02-15T05:51:18;101397.06;;;10.00;100.00
7297;BME280;40758;54.038;11.684;2024-02-15T05:53:45;101409.38;;;10.03;100.00
7297;BME280;40758;54.038;11.684;2024-02-15T05:56:12;101403.94;;;10.03;100.00
7297;BME280;40758;54.038;11.684;2024-02-15T05:58:40;101414.81;;;10.03;100.00
7297;BME280;40758;54.038;11.684;2024-02-15T06:01:07;101403.94;;;10.03;100.00
7297;BME280;40758;54.038;11.684;2024-02-15T06:03:37;101408.38;;;10.04;100.00
7297;BME280;40758;54.038;11.684;2024-02-15T06:06:07;101411.91;;;10.04;100.00
7297;BME280;40758;54.038;11.684;2024-02-15T06:08:35;101411.50;;;10.07;100.00
7297;BME280;40758;54.038;11.684;2024-02-15T06:11:04;101404.41;;;10.13;100.00
7297;BME280;40758;54.038;11.684;2024-02-15T06:13:32;101421.13;;;10.10;100.00
7297;BME280;40758;54.038;11.684;2024-02-15T06:15:58;101411.50;;;10.07;100.00
7297;BME280;40758;54.038;11.684;2024-02-15T06:18:27;101416.28;;;10.05;100.00
7297;BME280;40758;54.038;11.684;2024-02-15T06:20:56;101409.81;;;10.06;100.00
7297;BME280;40758;54.038;11.684;2024-02-15T06:23:29;101413.38;;;10.07;100.00
7297;BME280;40758;54.038;11.684;2024-02-15T06:25:56;101409.00;;;10.06;100.00
7297;BME280;40758;54.038;11.684;2024-02-15T06:28:28;101416.50;;;10.04;100.00
7297;BME280;40758;54.038;11.684;2024-02-15T06:31:14;101414.41;;;10.06;100.00
7297;BME280;40758;54.038;11.684;2024-02-15T06:34:00;101419.47;;;10.16;100.00
7297;BME280;40758;54.038;11.684;2024-02-15T06:36:52;101417.84;;;10.21;100.00
7297;BME280;40758;54.038;11.684;2024-02-15T06:39:37;101421.56;;;10.20;100.00
7297;BME280;40758;54.038;11.684;2024-02-15T06:42:05;101420.09;;;10.18;100.00
7297;BME280;40758;54.038;11.684;2024-02-15T06:44:33;101418.78;;;10.07;100.00
7297;BME280;40758;54.038;11.684;2024-02-15T06:47:00;101429.03;;;10.05;100.00
7297;BME280;40758;54.038;11.684;2024-02-15T06:49:27;101426.56;;;10.10;100.00
7297;BME280;40758;54.038;11.684;2024-02-15T06:51:55;101436.78;;;10.14;100.00
7297;BME280;40758;54.038;11.684;2024-02-15T06:54:22;101431.16;;;10.16;100.00
7297;BME280;40758;54.038;11.684;2024-02-15T06:56:50;101429.50;;;10.15;100.00
7297;BME280;40758;54.038;11.684;2024-02-15T06:59:20;101431.34;;;10.14;100.00
7297;BME280;40758;54.038;11.684;2024-02-15T07:01:51;101433.88;;;10.16;100.00
7297;BME280;40758;54.038;11.684;2024-02-15T07:04:21;101436.19;;;10.19;100.00
7297;BME280;40758;54.038;11.684;2024-02-15T07:06:47;101443.09;;;10.22;100.00
7297;BME280;40758;54.038;11.684;2024-02-15T07:09:16;101435.00;;;10.28;100.00
7297;BME280;40758;54.038;11.684;2024-02-15T07:11:45;101444.38;;;10.26;100.00
7297;BME280;40758;54.038;11.684;2024-02-15T07:14:17;101441.22;;;10.22;100.00
7297;BME280;40758;54.038;11.684;2024-02-15T07:16:45;101445.41;;;10.25;100.00
7297;BME280;40758;54.038;11.684;2024-02-15T07:19:13;101448.97;;;10.25;100.00
7297;BME280;40758;54.038;11.684;2024-02-15T07:21:40;101447.75;;;10.28;100.00
7297;BME280;40758;54.038;11.684;2024-02-15T07:24:07;101448.38;;;10.30;100.00
7297;BME280;40758;54.038;11.684;2024-02-15T07:26:34;101444.81;;;10.29;100.00
7297;BME280;40758;54.038;11.684;2024-02-15T07:29:03;101443.78;;;10.30;100.00
7297;BME280;40758;54.038;11.684;2024-02-15T07:31:34;101440.91;;;10.38;100.00
7297;BME280;40758;54.038;11.684;2024-02-15T07:34:01;101436.72;;;10.43;100.00
7297;BME280;40758;54.038;11.684;2024-02-15T07:36:30;101444.06;;;10.49;100.00
7297;BME280;40758;54.038;11.684;2024-02-15T07:38:57;101448.84;;;10.40;100.00
7297;BME280;40758;54.038;11.684;2024-02-15T07:41:28;101455.72;;;10.43;100.00
7297;BME280;40758;54.038;11.684;2024-02-15T07:43:55;101454.72;;;10.44;100.00
7297;BME280;40758;54.038;11.684;2024-02-15T07:46:24;101455.13;;;10.47;100.00
7297;BME280;40758;54.038;11.684;2024-02-15T07:48:51;101457.84;;;10.54;100.00
7297;BME280;40758;54.038;11.684;2024-02-15T07:51:21;101454.75;;;10.57;100.00
7297;BME280;40758;54.038;11.684;2024-02-15T07:53:49;101458.72;;;10.61;100.00
7297;BME280;40758;54.038;11.684;2024-02-15T07:56:16;101462.31;;;10.68;100.00
7297;BME280;40758;54.038;11.684;2024-02-15T07:58:45;101460.22;;;10.77;100.00
7297;BME280;40758;54.038;11.684;2024-02-15T08:01:19;101461.50;;;10.87;100.00
7297;BME280;40758;54.038;11.684;2024-02-15T08:03:51;101460.69;;;10.93;100.00
7297;BME280;40758;54.038;11.684;2024-02-15T08:06:21;101460.06;;;10.98;100.00
7297;BME280;40758;54.038;11.684;2024-02-15T08:08:52;101449.81;;;10.93;100.00
7297;BME280;40758;54.038;11.684;2024-02-15T08:11:20;101456.09;;;11.01;100.00
7297;BME280;40758;54.038;11.684;2024-02-15T08:13:47;101464.44;;;10.92;100.00
7297;BME280;40758;54.038;11.684;2024-02-15T08:16:17;101459.00;;;10.92;100.00
7297;BME280;40758;54.038;11.684;2024-02-15T08:18:45;101461.31;;;10.96;100.00
7297;BME280;40758;54.038;11.684;2024-02-15T08:21:13;101467.41;;;11.04;100.00
7297;BME280;40758;54.038;11.684;2024-02-15T08:23:41;101465.72;;;11.03;100.00
7297;BME280;40758;54.038;11.684;2024-02-15T08:26:08;101453.19;;;11.02;100.00
7297;BME280;40758;54.038;11.684;2024-02-15T08:28:38;101444.59;;;11.05;100.00
7297;BME280;40758;54.038;11.684;2024-02-15T08:31:04;101447.31;;;11.05;100.00
7297;BME280;40758;54.038;11.684;2024-02-15T08:33:31;101452.97;;;11.10;100.00
7297;BME280;40758;54.038;11.684;2024-02-15T08:35:58;101455.47;;;11.12;100.00
7297;BME280;40758;54.038;11.684;2024-02-15T08:38:25;101454.03;;;11.16;100.00
7297;BME280;40758;54.038;11.684;2024-02-15T08:40:52;101454.47;;;11.19;100.00
7297;BME280;40758;54.038;11.684;2024-02-15T08:43:18;101459.06;;;11.26;100.00
7297;BME280;40758;54.038;11.684;2024-02-15T08:45:46;101459.47;;;11.29;100.00
7297;BME280;40758;54.038;11.684;2024-02-15T08:48:14;101460.72;;;11.33;100.00
7297;BME280;40758;54.038;11.684;2024-02-15T08:50:41;101459.91;;;11.39;100.00
7297;BME280;40758;54.038;11.684;2024-02-15T08:53:08;101461.56;;;11.47;100.00
7297;BME280;40758;54.038;11.684;2024-02-15T08:55:35;101454.44;;;11.46;100.00
7297;BME280;40758;54.038;11.684;2024-02-15T08:58:03;101456.31;;;11.59;100.00
7297;BME280;40758;54.038;11.684;2024-02-15T09:00:30;101462.41;;;11.61;100.00
7297;BME280;40758;54.038;11.684;2024-02-15T09:02:58;101462.59;;;11.66;100.00
7297;BME280;40758;54.038;11.684;2024-02-15T09:05:25;101464.28;;;11.67;100.00
7297;BME280;40758;54.038;11.684;2024-02-15T09:07:52;101464.47;;;11.72;100.00
7297;BME280;40758;54.038;11.684;2024-02-15T09:10:21;101471.59;;;11.66;100.00
7297;BME280;40758;54.038;11.684;2024-02-15T09:12:49;101468.25;;;11.58;100.00
7297;BME280;40758;54.038;11.684;2024-02-15T09:15:17;101470.34;;;11.56;100.00
7297;BME280;40758;54.038;11.684;2024-02-15T09:17:45;101462.59;;;11.59;100.00
7297;BME280;40758;54.038;11.684;2024-02-15T09:20:15;101465.75;;;11.63;100.00
7297;BME280;40758;54.038;11.684;2024-02-15T09:22:52;101466.78;;;11.68;100.00
7297;BME280;40758;54.038;11.684;2024-02-15T09:25:22;101463.22;;;11.68;100.00
7297;BME280;40758;54.038;11.684;2024-02-15T09:27:56;101464.06;;;11.68;100.00
7297;BME280;40758;54.038;11.684;2024-02-15T09:30:24;101464.25;;;11.73;100.00
7297;BME280;40758;54.038;11.684;2024-02-15T09:32:54;101461.97;;;11.77;100.00
7297;BME280;40758;54.038;11.684;2024-02-15T09:35:23;101459.44;;;11.82;100.00
7297;BME280;40758;54.038;11.684;2024-02-15T09:37:52;101454.66;;;11.84;100.00
7297;BME280;40758;54.038;11.684;2024-02-15T09:40:22;101454.22;;;11.87;100.00
7297;BME280;40758;54.038;11.684;2024-02-15T09:42:52;101451.50;;;11.87;100.00
7297;BME280;40758;54.038;11.684;2024-02-15T09:45:19;101452.31;;;11.88;100.00
7297;BME280;40758;54.038;11.684;2024-02-15T09:47:47;101451.50;;;11.87;100.00
7297;BME280;40758;54.038;11.684;2024-02-15T09:50:17;101464.25;;;11.87;100.00
7297;BME280;40758;54.038;11.684;2024-02-15T09:52:52;101461.31;;;11.88;100.00
7297;BME280;40758;54.038;11.684;2024-02-15T09:55:21;101462.81;;;11.91;100.00
7297;BME280;40758;54.038;11.684;2024-02-15T09:57:50;101462.34;;;11.94;100.00
7297;BME280;40758;54.038;11.684;2024-02-15T10:00:17;101469.91;;;11.92;100.00
7297;BME280;40758;54.038;11.684;2024-02-15T10:02:47;101476.81;;;11.88;100.00
7297;BME280;40758;54.038;11.684;2024-02-15T10:05:16;101475.78;;;11.89;100.00
7297;BME280;40758;54.038;11.684;2024-02-15T10:07:43;101481.63;;;11.99;100.00
7297;BME280;40758;54.038;11.684;2024-02-15T10:12:50;101476.34;;;12.11;100.00
7297;BME280;40758;54.038;11.684;2024-02-15T10:18:07;101472.59;;;12.18;100.00
7297;BME280;40758;54.038;11.684;2024-02-15T10:20:36;101475.91;;;12.20;100.00
7297;BME280;40758;54.038;11.684;2024-02-15T10:25:36;101480.13;;;12.10;100.00
7297;BME280;40758;54.038;11.684;2024-02-15T10:28:08;101478.88;;;12.06;100.00
7297;BME280;40758;54.038;11.684;2024-02-15T10:30:40;101471.97;;;12.10;100.00
7297;BME280;40758;54.038;11.684;2024-02-15T10:33:28;101467.56;;;12.15;100.00
7297;BME280;40758;54.038;11.684;2024-02-15T10:36:08;101469.19;;;12.23;100.00
7297;BME280;40758;54.038;11.684;2024-02-15T10:38:36;101466.47;;;12.30;100.00
7297;BME280;40758;54.038;11.684;2024-02-15T10:41:04;101465.19;;;12.32;100.00
7297;BME280;40758;54.038;11.684;2024-02-15T10:43:36;101465.00;;;12.27;100.00
7297;BME280;40758;54.038;11.684;2024-02-15T10:46:06;101465.25;;;12.19;100.00
7297;BME280;40758;54.038;11.684;2024-02-15T10:48:37;101467.31;;;12.30;100.00
7297;BME280;40758;54.038;11.684;2024-02-15T10:51:09;101463.09;;;12.28;100.00
7297;BME280;40758;54.038;11.684;2024-02-15T10:53:40;101457.63;;;12.34;100.00
7297;BME280;40758;54.038;11.684;2024-02-15T10:56:18;101454.47;;;12.44;100.00
7297;BME280;40758;54.038;11.684;2024-02-15T10:59:04;101461.34;;;12.46;100.00
7297;BME280;40758;54.038;11.684;2024-02-15T11:01:35;101460.09;;;12.49;100.00
7297;BME280;40758;54.038;11.684;2024-02-15T11:04:13;101459.91;;;12.44;100.00
7297;BME280;40758;54.038;11.684;2024-02-15T11:06:42;101468.53;;;12.34;100.00
7297;BME280;40758;54.038;11.684;2024-02-15T11:09:11;101461.84;;;12.30;100.00
7297;BME280;40758;54.038;11.684;2024-02-15T11:11:39;101463.09;;;12.28;100.00
7297;BME280;40758;54.038;11.684;2024-02-15T11:14:26;101458.94;;;12.25;100.00
7297;BME280;40758;54.038;11.684;2024-02-15T11:16:53;101467.75;;;12.20;100.00
7297;BME280;40758;54.038;11.684;2024-02-15T11:22:08;101468.63;;;12.08;100.00
7297;BME280;40758;54.038;11.684;2024-02-15T11:24:45;101461.94;;;12.04;100.00
7297;BME280;40758;54.038;11.684;2024-02-15T11:27:24;101462.38;;;12.01;100.00
7297;BME280;40758;54.038;11.684;2024-02-15T11:29:53;101461.72;;;11.98;100.00
7297;BME280;40758;54.038;11.684;2024-02-15T11:32:43;101456.28;;;11.98;100.00
7297;BME280;40758;54.038;11.684;2024-02-15T11:35:13;101463.22;;;11.94;100.00
7297;BME280;40758;54.038;11.684;2024-02-15T11:40:20;101467.41;;;11.90;100.00
7297;BME280;40758;54.038;11.684;2024-02-15T11:43:01;101459.84;;;11.92;100.00
7297;BME280;40758;54.038;11.684;2024-02-15T11:45:31;101459.84;;;11.92;100.00
7297;BME280;40758;54.038;11.684;2024-02-15T11:48:08;101453.38;;;11.93;100.00
7297;BME280;40758;54.038;11.684;2024-02-15T11:50:39;101457.78;;;11.94;100.00
7297;BME280;40758;54.038;11.684;2024-02-15T11:53:09;101445.19;;;11.93;100.00
7297;BME280;40758;54.038;11.684;2024-02-15T11:55:39;101446.91;;;11.94;100.00
7297;BME280;40758;54.038;11.684;2024-02-15T11:58:08;101444.78;;;11.96;100.00
7297;BME280;40758;54.038;11.684;2024-02-15T12:00:38;101445.63;;;11.97;100.00
7297;BME280;40758;54.038;11.684;2024-02-15T12:03:25;101440.19;;;11.97;100.00
7297;BME280;40758;54.038;11.684;2024-02-15T12:06:17;101438.06;;;11.99;100.00
7297;BME280;40758;54.038;11.684;2024-02-15T12:09:03;101436.38;;;12.05;100.00
7297;BME280;40758;54.038;11.684;2024-02-15T12:11:57;101426.50;;;12.10;100.00
7297;BME280;40758;54.038;11.684;2024-02-15T12:14:43;101421.47;;;12.20;100.00
7297;BME280;40758;54.038;11.684;2024-02-15T12:17:29;101418.09;;;12.25;100.00
7297;BME280;40758;54.038;11.684;2024-02-15T12:20:14;101432.13;;;12.22;100.00
7297;BME280;40758;54.038;11.684;2024-02-15T12:22:45;101432.56;;;12.19;100.00
7297;BME280;40758;54.038;11.684;2024-02-15T12:25:17;101430.03;;;12.17;100.00
7297;BME280;40758;54.038;11.684;2024-02-15T12:27:56;101424.22;;;12.14;100.00
7297;BME280;40758;54.038;11.684;2024-02-15T12:30:23;101424.00;;;12.09;100.00
7297;BME280;40758;54.038;11.684;2024-02-15T12:32:52;101425.94;;;12.02;100.00
7297;BME280;40758;54.038;11.684;2024-02-15T12:35:35;101415.22;;;12.00;100.00
7297;BME280;40758;54.038;11.684;2024-02-15T12:38:03;101418.41;;;11.97;100.00
7297;BME280;40758;54.038;11.684;2024-02-15T12:40:36;101418.81;;;12.01;100.00
7297;BME280;40758;54.038;11.684;2024-02-15T12:43:07;101420.50;;;12.02;100.00
7297;BME280;40758;54.038;11.684;2024-02-15T12:45:40;101420.03;;;12.05;100.00
7297;BME280;40758;54.038;11.684;2024-02-15T12:48:09;101412.94;;;12.04;100.00
7297;BME280;40758;54.038;11.684;2024-02-15T12:50:37;101418.78;;;12.07;100.00
7297;BME280;40758;54.038;11.684;2024-02-15T12:53:04;101407.06;;;12.07;100.00
7297;BME280;40758;54.038;11.684;2024-02-15T12:55:34;101411.03;;;12.04;100.00
7297;BME280;40758;54.038;11.684;2024-02-15T12:58:04;101407.72;;;12.02;100.00
7297;BME280;40758;54.038;11.684;2024-02-15T13:00:36;101411.69;;;11.99;100.00
7297;BME280;40758;54.038;11.684;2024-02-15T13:03:08;101414.41;;;11.99;100.00
7297;BME280;40758;54.038;11.684;2024-02-15T13:05:39;101415.47;;;11.98;100.00
7297;BME280;40758;54.038;11.684;2024-02-15T13:08:07;101419.84;;;11.99;100.00
7297;BME280;40758;54.038;11.684;2024-02-15T13:10:41;101415.22;;;12.00;100.00